»·PEaware :: AAL1021 KSLC-KLAS

AAL1021 :: KSLC-KLAS

FLIGHT INFORMATION

Flight Status: Arrived
Operator:
American Airlines
More flights by this operator :: More flights under this callsign
Pilot: Dave P. (45)
Aircraft: BOEING 737-600
(B736)
More flights by this aircraft type
Origin: KSLC Salt Lake City Intl
United States
Destination: KLAS McCarran Intl
United States
More flights between these airports :: More routes between these airports
Route: +WEVIC6 EHK KSINO SITEE2
File this flight plan on PilotEdge
Remarks: PBN / A1B1C1D1S1S2 DOF / 180428 REG / N736PM EET / KZLA0033 OPR / AAL PER / C RMK / TCAS SIMBRIEF
Altitude:
(Current/Filed)
32,000ft
Speed:
(Current/Filed)
457kts
Departed: 28-Apr-18 10:39 AM
Arrived: 28-Apr-18 11:38 AM
Distance/Time
Traveled:
319nm/0:59
Distance/Time
To Go:
Arrived

Flight Plot

Page will automatically refresh every two minutes.

Flight plan parsing failed; only flown route is shown


Map Options




Map Legend


Flown Route
Filed Route
Departure Airport
Arrival Airport
Navaid (VOR, NDB)
Fix

Horizontal Profiles

Position Reports

Time Latitude Longitude Heading Altitude Ground
Speed
28-Apr-18 10:21 40.785126 -111.977140 290 4235ft 0kts
28-Apr-18 10:22 40.785126 -111.977140 290 4235ft 0kts
28-Apr-18 10:23 40.785126 -111.977140 290 4235ft 0kts
28-Apr-18 10:24 40.785126 -111.977140 290 4235ft 0kts
28-Apr-18 10:25 40.785126 -111.977140 290 4235ft 0kts
28-Apr-18 10:26 40.785126 -111.977140 290 4235ft 0kts
28-Apr-18 10:27 40.785126 -111.977140 290 4235ft 0kts
28-Apr-18 10:28 40.785126 -111.977140 290 4235ft 0kts
28-Apr-18 10:29 40.785025 -111.976793 290 4234ft 2kts
28-Apr-18 10:30 40.784961 -111.976574 290 4234ft 0kts
28-Apr-18 10:31 40.784961 -111.976574 290 4234ft 0kts
28-Apr-18 10:32 40.785138 -111.976601 10 4234ft 5kts
28-Apr-18 10:33 40.789823 -111.976983 354 4234ft 24kts
28-Apr-18 10:34 40.795863 -111.977697 354 4234ft 19kts
28-Apr-18 10:35 40.801683 -111.978387 355 4234ft 23kts
28-Apr-18 10:36 40.806988 -111.978956 9 4234ft 9kts
28-Apr-18 10:37 40.807373 -111.978242 85 4234ft 3kts
28-Apr-18 10:38 40.804860 -111.976543 174 4235ft 53kts
28-Apr-18 10:39 40.769693 -111.973438 175 5421ft 148kts
28-Apr-18 10:40 40.723044 -111.970147 176 6964ft 209kts
28-Apr-18 10:41 40.653750 -111.965321 176 8940ft 280kts
28-Apr-18 10:42 40.573414 -111.959738 178 12038ft 312kts
28-Apr-18 10:43 40.480206 -111.953328 178 14912ft 346kts
28-Apr-18 10:44 40.382090 -111.946535 178 17992ft 359kts
28-Apr-18 10:45 40.279194 -111.939766 180 20953ft 379kts
28-Apr-18 10:46 40.172127 -111.954563 187 23543ft 396kts
28-Apr-18 10:47 40.060091 -111.970717 187 25954ft 411kts
28-Apr-18 10:48 39.944620 -111.987599 187 28000ft 425kts
28-Apr-18 10:49 39.825760 -112.004913 187 29912ft 433kts
28-Apr-18 10:50 39.706842 -112.022290 187 31893ft 429kts
28-Apr-18 10:51 39.588546 -112.039427 187 31909ft 426kts
28-Apr-18 10:52 39.470973 -112.056387 187 31902ft 425kts
28-Apr-18 10:53 39.353071 -112.073187 187 31904ft 425kts
28-Apr-18 10:54 39.235432 -112.089839 187 31904ft 426kts
28-Apr-18 10:55 39.120053 -112.118691 204 31906ft 424kts
28-Apr-18 10:56 39.015908 -112.190534 209 31916ft 424kts
28-Apr-18 10:57 38.913319 -112.264771 209 31924ft 424kts
28-Apr-18 10:58 38.810719 -112.339049 209 31930ft 424kts
28-Apr-18 10:59 38.707814 -112.413611 209 31934ft 424kts
28-Apr-18 11:00 38.605009 -112.487717 209 31935ft 425kts
28-Apr-18 11:01 38.501698 -112.561900 209 31933ft 425kts
28-Apr-18 11:02 38.398674 -112.635620 209 31930ft 425kts
28-Apr-18 11:03 38.295620 -112.709118 209 31930ft 424kts
28-Apr-18 11:04 38.192388 -112.782504 209 31927ft 424kts
28-Apr-18 11:05 38.089512 -112.855402 209 31937ft 424kts
28-Apr-18 11:06 37.986801 -112.928149 209 31949ft 423kts
28-Apr-18 11:07 37.883238 -113.000979 209 31953ft 425kts
28-Apr-18 11:08 37.780165 -113.073688 211 31949ft 423kts
28-Apr-18 11:09 37.682547 -113.156530 214 31949ft 423kts
28-Apr-18 11:10 37.585020 -113.239931 214 31946ft 422kts
28-Apr-18 11:11 37.487667 -113.322424 214 31936ft 422kts
28-Apr-18 11:12 37.390290 -113.404685 214 31918ft 422kts
28-Apr-18 11:13 37.292600 -113.487159 214 31891ft 422kts
28-Apr-18 11:14 37.195426 -113.569153 214 31862ft 418kts
28-Apr-18 11:15 37.098738 -113.650446 214 31642ft 413kts
28-Apr-18 11:16 37.003098 -113.730513 214 28292ft 414kts
28-Apr-18 11:17 36.908859 -113.808972 214 25499ft 401kts
28-Apr-18 11:18 36.817470 -113.884971 214 23801ft 390kts
28-Apr-18 11:19 36.726829 -113.960025 214 22802ft 389kts
28-Apr-18 11:20 36.637259 -114.033849 213 21123ft 383kts
28-Apr-18 11:21 36.559484 -114.118721 232 18436ft 367kts
28-Apr-18 11:22 36.505357 -114.222573 235 15986ft 350kts
28-Apr-18 11:23 36.462443 -114.306173 235 13905ft 339kts
28-Apr-18 11:24 36.413445 -114.401359 234 12399ft 301kts
28-Apr-18 11:25 36.371985 -114.481995 234 11989ft 267kts
28-Apr-18 11:26 36.330672 -114.559899 229 10771ft 271kts
28-Apr-18 11:27 36.273564 -114.642581 227 8895ft 264kts
28-Apr-18 11:28 36.226861 -114.709709 227 7689ft 240kts
28-Apr-18 11:29 36.186913 -114.767460 227 6912ft 207kts
28-Apr-18 11:30 36.149215 -114.821924 227 5131ft 207kts
28-Apr-18 11:31 36.120398 -114.863631 227 4990ft 183kts
28-Apr-18 11:32 36.087570 -114.911188 227 4373ft 178kts
28-Apr-18 11:33 36.073758 -114.969382 265 4313ft 182kts
28-Apr-18 11:34 36.073740 -115.029297 265 3736ft 173kts
28-Apr-18 11:35 36.073694 -115.081396 265 2901ft 134kts
28-Apr-18 11:36 36.073680 -115.127231 265 2200ft 136kts
28-Apr-18 11:37 36.074444 -115.145018 294 2189ft 11kts
28-Apr-18 11:38 36.077054 -115.146524 355 2189ft 0kts
28-Apr-18 11:39 36.078526 -115.147111 76 2189ft 8kts
28-Apr-18 11:40 36.078624 -115.142313 359 2189ft 11kts
28-Apr-18 11:41 36.081587 -115.140270 117 2189ft 6kts
28-Apr-18 11:42 36.081269 -115.139700 125 2189ft 0kts
28-Apr-18 11:43 36.081269 -115.139700 125 2189ft 0kts

Navigation Log

Ident Type
Flight plan parsing failed, navigation log unavailable